createdAt,value
2022-09-18T00:01:10.837Z,16.34
2022-09-18T00:03:38.889Z,16.57
2022-09-18T00:06:10.606Z,16.78
2022-09-18T00:08:39.657Z,16.99
2022-09-18T00:11:09.540Z,16.90
2022-09-18T00:13:38.724Z,16.51
2022-09-18T00:16:07.827Z,16.10
2022-09-18T00:18:35.923Z,15.79
2022-09-18T00:21:05.483Z,15.70
2022-09-18T00:23:34.847Z,15.47
2022-09-18T00:26:02.820Z,15.18
2022-09-18T00:28:30.723Z,14.96
2022-09-18T00:31:05.195Z,14.90
2022-09-18T00:33:33.172Z,14.64
2022-09-18T00:36:05.737Z,14.50
2022-09-18T00:38:35.493Z,14.59
2022-09-18T00:41:04.997Z,14.39
2022-09-18T00:43:35.117Z,14.40
2022-09-18T00:46:06.753Z,14.25
2022-09-18T00:48:41.645Z,14.22
2022-09-18T00:51:10.255Z,14.07
2022-09-18T00:53:44.935Z,14.01
2022-09-18T00:56:16.887Z,13.96
2022-09-18T00:58:46.097Z,13.84
2022-09-18T01:01:14.055Z,13.70
2022-09-18T01:03:41.948Z,13.58
2022-09-18T01:06:15.740Z,13.50
2022-09-18T01:08:56.537Z,13.36
2022-09-18T01:11:38.128Z,13.21
2022-09-18T01:14:23.060Z,13.00
2022-09-18T01:16:58.607Z,12.87
2022-09-18T01:19:43.886Z,12.71
2022-09-18T01:22:23.893Z,12.11
2022-09-18T01:25:14.900Z,11.34
2022-09-18T01:28:11.717Z,10.78
2022-09-18T01:30:43.787Z,10.60
2022-09-18T01:33:17.150Z,10.54
2022-09-18T01:35:48.833Z,10.42
2022-09-18T01:38:21.615Z,10.32
2022-09-18T01:40:54.400Z,10.15
2022-09-18T01:43:29.063Z,10.16
2022-09-18T01:46:01.187Z,10.10
2022-09-18T01:48:33.265Z,10.00
2022-09-18T01:51:07.695Z,9.82
2022-09-18T01:53:40.856Z,9.83
2022-09-18T01:56:14.129Z,9.89
2022-09-18T01:58:44.224Z,9.88
2022-09-18T02:01:16.962Z,9.88
2022-09-18T02:03:50.675Z,9.75
2022-09-18T02:06:23.628Z,9.70
2022-09-18T02:08:54.079Z,9.72
2022-09-18T02:11:22.944Z,9.63
2022-09-18T02:13:58.056Z,9.53
2022-09-18T02:16:33.234Z,9.38
2022-09-18T02:19:09.847Z,9.35
2022-09-18T02:21:38.220Z,9.29
2022-09-18T02:24:08.924Z,9.26
2022-09-18T02:26:38.888Z,9.29
2022-09-18T02:29:12.343Z,9.28
2022-09-18T02:31:41.354Z,9.22
2022-09-18T02:34:12.348Z,9.27
2022-09-18T02:37:02.778Z,9.16
2022-09-18T02:39:53.432Z,9.29
2022-09-18T02:42:32.892Z,9.24
2022-09-18T02:45:10.144Z,9.19
2022-09-18T02:47:55.204Z,9.17
2022-09-18T02:50:29.971Z,9.05
2022-09-18T02:53:07.009Z,9.05
2022-09-18T02:55:44.309Z,9.14
2022-09-18T02:58:18.615Z,9.06
2022-09-18T03:00:50.037Z,9.10
2022-09-18T03:03:19.037Z,9.09
2022-09-18T03:05:46.969Z,8.79
2022-09-18T03:08:14.831Z,8.64
2022-09-18T03:10:42.656Z,8.58
2022-09-18T03:13:10.500Z,8.51
2022-09-18T03:15:38.336Z,8.45
2022-09-18T03:18:07.588Z,8.41
2022-09-18T03:20:35.608Z,8.45
2022-09-18T03:23:03.430Z,8.40
2022-09-18T03:25:31.275Z,8.37
2022-09-18T03:27:59.153Z,8.48
2022-09-18T03:30:26.979Z,8.54
2022-09-18T03:32:54.815Z,8.36
2022-09-18T03:35:24.051Z,8.33
2022-09-18T03:37:51.913Z,8.35
2022-09-18T03:40:19.909Z,8.45
2022-09-18T03:42:47.783Z,8.48
2022-09-18T03:45:15.867Z,8.42
2022-09-18T03:47:43.697Z,8.42
2022-09-18T03:50:11.676Z,8.27
2022-09-18T03:52:40.979Z,8.24
2022-09-18T03:55:09.728Z,8.27
2022-09-18T03:57:37.702Z,8.34
2022-09-18T04:00:07.104Z,8.32
2022-09-18T04:02:34.980Z,8.22
2022-09-18T04:05:03.087Z,8.22
2022-09-18T04:07:30.999Z,8.13
2022-09-18T04:10:00.334Z,8.08
2022-09-18T04:12:28.531Z,8.06
2022-09-18T04:14:56.450Z,8.08
2022-09-18T04:17:24.875Z,8.16
2022-09-18T04:19:53.723Z,8.20
2022-09-18T04:22:21.859Z,8.15
2022-09-18T04:24:50.443Z,8.17
2022-09-18T04:27:19.768Z,8.25
2022-09-18T04:29:47.933Z,8.22
2022-09-18T04:32:15.857Z,8.19
2022-09-18T04:34:43.959Z,8.28
2022-09-18T04:37:11.861Z,8.39
2022-09-18T04:39:40.345Z,8.29
2022-09-18T04:42:08.452Z,8.29
2022-09-18T04:44:37.653Z,8.32
2022-09-18T04:47:06.204Z,8.34
2022-09-18T04:49:34.092Z,8.40
2022-09-18T04:52:02.030Z,8.36
2022-09-18T04:54:29.896Z,8.34
2022-09-18T04:56:57.863Z,8.23
2022-09-18T04:59:25.704Z,8.32
2022-09-18T05:01:54.999Z,8.36
2022-09-18T05:04:22.930Z,8.24
2022-09-18T05:06:50.767Z,8.19
2022-09-18T05:09:18.617Z,8.18
2022-09-18T05:11:46.530Z,8.28
2022-09-18T05:14:14.395Z,8.25
2022-09-18T05:16:42.228Z,8.24
2022-09-18T05:19:11.452Z,8.29
2022-09-18T05:21:39.463Z,8.37
2022-09-18T05:24:07.441Z,8.34
2022-09-18T05:26:35.360Z,8.31
2022-09-18T05:29:03.247Z,8.35
2022-09-18T05:31:31.163Z,8.41
2022-09-18T05:33:59.090Z,8.45
2022-09-18T05:36:28.300Z,8.42
2022-09-18T05:38:56.175Z,8.33
2022-09-18T05:41:24.032Z,8.41
2022-09-18T05:43:51.861Z,8.39
2022-09-18T05:46:19.825Z,8.34
2022-09-18T05:48:49.739Z,8.25
2022-09-18T05:51:17.770Z,8.26
2022-09-18T05:53:48.536Z,8.26
2022-09-18T05:56:17.120Z,8.23
2022-09-18T05:58:45.017Z,8.23
2022-09-18T06:01:14.506Z,8.31
2022-09-18T06:03:42.573Z,8.28
2022-09-18T06:06:10.457Z,8.24
2022-09-18T06:08:38.574Z,8.20
2022-09-18T06:11:08.030Z,8.29
2022-09-18T06:13:35.982Z,8.36
2022-09-18T06:16:04.243Z,8.38
2022-09-18T06:18:32.158Z,8.47
2022-09-18T06:21:00.388Z,8.47
2022-09-18T06:23:29.514Z,8.48
2022-09-18T06:25:59.120Z,8.59
2022-09-18T06:28:28.635Z,8.50
2022-09-18T06:30:56.496Z,8.43
2022-09-18T06:33:24.450Z,8.49
2022-09-18T06:35:52.331Z,8.51
2022-09-18T06:38:20.198Z,8.66
2022-09-18T06:40:51.840Z,8.67
2022-09-18T06:43:20.294Z,8.67
2022-09-18T06:45:53.971Z,8.73
2022-09-18T06:48:22.019Z,8.75
2022-09-18T06:50:54.602Z,8.93
2022-09-18T06:53:23.184Z,9.07
2022-09-18T06:55:51.586Z,9.22
2022-09-18T06:58:20.869Z,9.22
2022-09-18T07:00:48.796Z,9.41
2022-09-18T07:03:18.052Z,9.53
2022-09-18T07:05:46.586Z,9.72
2022-09-18T07:08:14.856Z,9.90
2022-09-18T07:10:42.809Z,10.11
2022-09-18T07:13:10.703Z,10.41
2022-09-18T07:15:38.594Z,10.68
2022-09-18T07:18:08.110Z,11.01
2022-09-18T07:20:37.329Z,10.82
2022-09-18T07:23:05.480Z,11.17
2022-09-18T07:25:34.633Z,11.38
2022-09-18T07:28:08.078Z,11.82
2022-09-18T07:30:36.066Z,12.34
2022-09-18T07:33:04.798Z,12.22
2022-09-18T07:35:33.443Z,12.15
2022-09-18T07:38:05.897Z,12.45
2022-09-18T07:40:34.416Z,12.35
2022-09-18T07:43:03.925Z,12.37
2022-09-18T07:45:32.179Z,12.26
2022-09-18T07:48:02.637Z,11.56
2022-09-18T07:50:30.521Z,12.21
2022-09-18T07:53:02.165Z,12.18
2022-09-18T07:55:31.438Z,12.50
2022-09-18T07:58:00.857Z,12.69
2022-09-18T08:00:31.191Z,12.87
2022-09-18T08:03:03.394Z,12.88
2022-09-18T08:05:31.789Z,12.87
2022-09-18T08:08:04.333Z,13.32
2022-09-18T08:10:34.976Z,14.26
2022-09-18T08:13:03.759Z,14.84
2022-09-18T08:15:32.812Z,15.80
2022-09-18T08:18:01.043Z,15.89
2022-09-18T08:20:29.830Z,15.80
2022-09-18T08:22:58.551Z,15.38
2022-09-18T08:25:27.431Z,14.98
2022-09-18T08:28:00.140Z,15.39
2022-09-18T08:30:28.383Z,15.66
2022-09-18T08:33:00.126Z,15.97
2022-09-18T08:35:28.531Z,16.16
2022-09-18T08:37:56.634Z,16.12
2022-09-18T08:40:37.017Z,15.72
2022-09-18T08:43:17.112Z,15.21
2022-09-18T08:45:56.091Z,14.88
2022-09-18T08:48:27.875Z,15.05
2022-09-18T08:51:01.177Z,16.21
2022-09-18T08:53:35.090Z,16.80
2022-09-18T08:56:05.596Z,16.83
2022-09-18T08:58:39.123Z,16.98
2022-09-18T09:01:10.463Z,16.74
2022-09-18T09:03:49.852Z,16.66
2022-09-18T09:06:32.108Z,16.57
2022-09-18T09:09:23.780Z,16.43
2022-09-18T09:11:59.980Z,16.21
2022-09-18T09:14:56.529Z,16.89
2022-09-18T09:17:39.820Z,17.33
2022-09-18T09:20:24.241Z,17.48
2022-09-18T09:23:01.900Z,16.99
2022-09-18T09:25:39.794Z,15.81
2022-09-18T09:28:16.821Z,14.96
2022-09-18T09:30:49.348Z,14.51
2022-09-18T09:33:22.484Z,14.48
2022-09-18T09:35:54.628Z,14.54
2022-09-18T09:38:40.444Z,14.30
2022-09-18T09:41:17.373Z,14.35
2022-09-18T09:43:53.784Z,15.03
2022-09-18T09:46:37.796Z,15.18
2022-09-18T09:49:11.309Z,14.54
2022-09-18T09:51:47.813Z,14.54
2022-09-18T09:54:15.756Z,14.15
2022-09-18T09:56:51.242Z,14.62
2022-09-18T09:59:25.513Z,15.56
2022-09-18T10:02:00.868Z,14.63
2022-09-18T10:04:37.998Z,14.79
2022-09-18T10:07:16.150Z,14.59
2022-09-18T10:09:49.313Z,14.30
2022-09-18T10:12:25.968Z,14.06
2022-09-18T10:14:58.251Z,14.45
2022-09-18T10:17:32.553Z,14.29
2022-09-18T10:20:00.496Z,14.06
2022-09-18T10:22:29.908Z,14.15
2022-09-18T10:25:04.804Z,13.91
2022-09-18T10:27:32.866Z,13.97
2022-09-18T10:30:01.392Z,13.87
2022-09-18T10:32:38.423Z,13.82
2022-09-18T10:35:42.784Z,13.93
2022-09-18T10:38:30.801Z,15.43
2022-09-18T10:41:12.558Z,15.90
2022-09-18T10:43:56.049Z,16.49
2022-09-18T10:46:26.153Z,16.06
2022-09-18T10:48:55.716Z,16.90
2022-09-18T10:51:25.840Z,16.85
2022-09-18T10:54:16.605Z,16.31
2022-09-18T10:56:44.511Z,15.63
2022-09-18T10:59:35.156Z,15.78
2022-09-18T11:02:06.326Z,15.42
2022-09-18T11:04:35.937Z,16.35
2022-09-18T11:07:07.628Z,16.50
2022-09-18T11:09:39.618Z,17.12
2022-09-18T11:12:15.847Z,17.44
2022-09-18T11:14:47.452Z,17.67
2022-09-18T11:17:31.489Z,17.46
2022-09-18T11:20:03.112Z,17.75
2022-09-18T11:22:40.099Z,17.78
2022-09-18T11:25:17.794Z,17.72
2022-09-18T11:27:47.682Z,17.53
2022-09-18T11:30:24.026Z,18.16
2022-09-18T11:32:58.409Z,17.56
2022-09-18T11:35:29.571Z,18.21
2022-09-18T11:38:00.844Z,17.97
2022-09-18T11:40:32.875Z,18.55
2022-09-18T11:43:05.515Z,17.73
2022-09-18T11:45:50.836Z,17.47
2022-09-18T11:48:27.409Z,17.03
2022-09-18T11:50:58.956Z,17.11
2022-09-18T11:53:31.365Z,16.83
2022-09-18T11:56:05.489Z,16.59
2022-09-18T11:58:39.036Z,16.66
2022-09-18T12:01:16.440Z,16.35
2022-09-18T12:03:49.905Z,17.17
2022-09-18T12:06:28.774Z,17.45
2022-09-18T12:09:01.152Z,18.12
2022-09-18T12:11:35.880Z,17.55
2022-09-18T12:14:13.350Z,16.91
2022-09-18T12:16:46.133Z,16.85
2022-09-18T12:19:19.203Z,17.02
2022-09-18T12:21:55.800Z,17.35
2022-09-18T12:24:24.216Z,16.55
2022-09-18T12:27:01.943Z,16.04
2022-09-18T12:29:44.665Z,16.19
2022-09-18T12:32:31.315Z,16.87
2022-09-18T12:35:07.751Z,17.06
2022-09-18T12:37:52.046Z,16.87
2022-09-18T12:40:44.539Z,16.92
2022-09-18T12:43:34.888Z,17.13
2022-09-18T12:46:19.512Z,17.34
2022-09-18T12:49:00.279Z,16.93
2022-09-18T12:51:40.104Z,16.99
2022-09-18T12:54:27.005Z,16.45
2022-09-18T12:57:08.404Z,16.08
2022-09-18T12:59:47.436Z,15.95
2022-09-18T13:02:28.916Z,16.03
2022-09-18T13:05:03.736Z,15.67
2022-09-18T13:07:36.329Z,15.61
2022-09-18T13:10:12.686Z,15.80
2022-09-18T13:12:45.746Z,15.63
2022-09-18T13:15:18.228Z,15.57
2022-09-18T13:17:51.131Z,15.25
2022-09-18T13:20:25.018Z,15.09
2022-09-18T13:22:56.024Z,15.24
2022-09-18T13:25:31.472Z,15.02
2022-09-18T13:28:03.199Z,15.28
2022-09-18T13:30:31.943Z,15.23
2022-09-18T13:33:01.066Z,15.33
2022-09-18T13:35:31.108Z,15.29
2022-09-18T13:38:16.601Z,15.24
2022-09-18T13:40:48.306Z,15.48
2022-09-18T13:43:24.261Z,15.68
2022-09-18T13:45:52.732Z,15.38
2022-09-18T13:48:24.431Z,15.11
2022-09-18T13:50:57.217Z,15.31
2022-09-18T13:53:33.527Z,15.28
2022-09-18T13:56:03.946Z,15.41
2022-09-18T13:58:54.395Z,15.20
2022-09-18T14:01:58.081Z,15.24
2022-09-18T14:05:08.616Z,15.17
2022-09-18T14:07:55.310Z,15.12
2022-09-18T14:10:26.961Z,15.15
2022-09-18T14:13:28.289Z,15.28
2022-09-18T14:16:03.026Z,15.34
2022-09-18T14:18:33.443Z,15.39
2022-09-18T14:21:16.462Z,15.51
2022-09-18T14:24:26.002Z,15.32
2022-09-18T14:26:57.313Z,15.19
2022-09-18T14:29:29.467Z,15.19
2022-09-18T14:32:00.822Z,15.24
2022-09-18T14:34:35.504Z,15.14
2022-09-18T14:37:23.203Z,15.18
2022-09-18T14:39:53.250Z,14.51
2022-09-18T14:42:32.449Z,14.94
2022-09-18T14:45:24.221Z,15.07
2022-09-18T14:47:53.948Z,15.03
2022-09-18T14:50:28.574Z,14.77
2022-09-18T14:52:57.575Z,14.68
2022-09-18T14:55:31.956Z,14.58
2022-09-18T14:58:03.211Z,14.59
2022-09-18T15:00:34.195Z,14.84
2022-09-18T15:03:07.260Z,14.96
2022-09-18T15:05:35.833Z,14.85
2022-09-18T15:08:06.392Z,14.90
2022-09-18T15:10:39.088Z,14.70
2022-09-18T15:13:09.472Z,14.71
2022-09-18T15:15:40.132Z,14.68
2022-09-18T15:18:19.809Z,14.56
2022-09-18T15:20:52.809Z,14.64
2022-09-18T15:23:23.121Z,14.68
2022-09-18T15:25:53.651Z,14.60
2022-09-18T15:28:24.146Z,14.51
2022-09-18T15:30:56.950Z,14.52
2022-09-18T15:33:27.574Z,14.20
2022-09-18T15:35:56.990Z,14.26
2022-09-18T15:38:35.148Z,14.37
2022-09-18T15:41:22.185Z,14.33
2022-09-18T15:43:50.498Z,14.49
2022-09-18T15:46:27.342Z,14.17
2022-09-18T15:49:00.433Z,14.40
2022-09-18T15:51:30.206Z,14.34
2022-09-18T15:54:26.508Z,13.27
2022-09-18T15:56:56.746Z,14.18
2022-09-18T15:59:30.564Z,14.29
2022-09-18T16:01:59.291Z,14.24
2022-09-18T16:04:32.932Z,14.25
2022-09-18T16:07:04.075Z,14.16
2022-09-18T16:09:36.967Z,14.14
2022-09-18T16:12:34.491Z,13.93
2022-09-18T16:15:15.935Z,14.04
2022-09-18T16:18:27.107Z,13.98
2022-09-18T16:21:05.455Z,13.83
2022-09-18T16:23:36.013Z,13.55
2022-09-18T16:26:10.591Z,13.85
2022-09-18T16:28:42.631Z,13.78
2022-09-18T16:31:11.701Z,13.77
2022-09-18T16:33:50.548Z,13.55
2022-09-18T16:36:27.830Z,13.59
2022-09-18T16:38:55.860Z,13.26
2022-09-18T16:41:23.891Z,13.32
2022-09-18T16:43:53.088Z,13.44
2022-09-18T16:46:23.817Z,13.35
2022-09-18T16:48:52.252Z,12.64
2022-09-18T16:51:22.167Z,13.20
2022-09-18T16:53:51.505Z,13.30
2022-09-18T16:56:25.330Z,13.23
2022-09-18T16:58:54.406Z,13.19
2022-09-18T17:01:23.290Z,13.18
2022-09-18T17:03:51.802Z,12.96
2022-09-18T17:06:19.962Z,12.95
2022-09-18T17:08:47.812Z,12.88
2022-09-18T17:11:18.073Z,12.91
2022-09-18T17:13:46.039Z,12.86
2022-09-18T17:16:22.280Z,12.84
2022-09-18T17:19:01.747Z,12.80
2022-09-18T17:21:29.802Z,12.82
2022-09-18T17:23:57.873Z,12.66
2022-09-18T17:26:28.577Z,12.70
2022-09-18T17:28:56.458Z,12.59
2022-09-18T17:31:26.409Z,12.73
2022-09-18T17:33:55.650Z,12.73
2022-09-18T17:36:24.347Z,12.74
2022-09-18T17:38:52.395Z,12.70
2022-09-18T17:41:20.464Z,12.66
2022-09-18T17:43:53.690Z,12.63
2022-09-18T17:46:22.031Z,12.59
2022-09-18T17:48:50.120Z,12.17
2022-09-18T17:51:19.687Z,12.52
2022-09-18T17:53:50.560Z,12.45
2022-09-18T17:56:20.745Z,12.41
2022-09-18T17:58:48.894Z,12.40
2022-09-18T18:01:20.254Z,12.38
2022-09-18T18:03:48.585Z,12.34
2022-09-18T18:06:21.541Z,12.35
2022-09-18T18:08:49.900Z,12.36
2022-09-18T18:11:20.008Z,12.30
2022-09-18T18:13:48.890Z,12.24
2022-09-18T18:16:23.108Z,12.23
2022-09-18T18:18:51.836Z,11.80
2022-09-18T18:21:19.950Z,12.15
2022-09-18T18:23:49.095Z,12.13
2022-09-18T18:26:16.978Z,12.12
2022-09-18T18:28:45.183Z,12.13
2022-09-18T18:31:14.477Z,12.09
2022-09-18T18:33:44.312Z,12.09
2022-09-18T18:36:14.925Z,12.05
2022-09-18T18:38:44.159Z,11.69
2022-09-18T18:41:13.336Z,12.00
2022-09-18T18:43:42.028Z,11.63
2022-09-18T18:46:12.904Z,11.91
2022-09-18T18:48:41.388Z,11.95
2022-09-18T18:51:13.444Z,11.92
2022-09-18T18:53:42.101Z,11.90
2022-09-18T18:56:12.275Z,11.92
2022-09-18T18:58:40.658Z,11.89
2022-09-18T19:01:10.768Z,11.88
2022-09-18T19:03:43.095Z,11.82
2022-09-18T19:06:13.297Z,11.78
2022-09-18T19:08:42.060Z,11.78
2022-09-18T19:11:09.903Z,11.77
2022-09-18T19:13:44.510Z,11.69
2022-09-18T19:16:13.411Z,11.12
2022-09-18T19:18:41.817Z,11.56
2022-09-18T19:21:09.704Z,11.53
2022-09-18T19:23:38.936Z,11.49
2022-09-18T19:26:07.335Z,11.18
2022-09-18T19:28:35.182Z,11.48
2022-09-18T19:31:05.182Z,11.44
2022-09-18T19:33:34.321Z,11.41
2022-09-18T19:36:06.034Z,11.24
2022-09-18T19:38:37.023Z,10.83
2022-09-18T19:41:11.326Z,10.77
2022-09-18T19:43:39.290Z,10.64
2022-09-18T19:46:11.995Z,10.47
2022-09-18T19:48:40.023Z,10.34
2022-09-18T19:51:09.391Z,9.72
2022-09-18T19:53:37.251Z,9.93
2022-09-18T19:56:27.459Z,9.80
2022-09-18T19:58:59.339Z,9.79
2022-09-18T20:01:27.179Z,9.30
2022-09-18T20:03:56.504Z,9.06
2022-09-18T20:06:24.409Z,9.66
2022-09-18T20:08:52.951Z,9.59
2022-09-18T20:11:22.235Z,9.71
2022-09-18T20:13:51.616Z,9.77
2022-09-18T20:16:21.151Z,9.81
2022-09-18T20:18:50.053Z,9.69
2022-09-18T20:21:20.195Z,9.43
2022-09-18T20:23:49.038Z,9.16
2022-09-18T20:26:20.351Z,9.63
2022-09-18T20:28:49.633Z,9.60
2022-09-18T20:31:18.224Z,9.59
2022-09-18T20:33:47.171Z,9.60
2022-09-18T20:36:15.033Z,9.54
2022-09-18T20:38:43.827Z,9.30
2022-09-18T20:41:13.631Z,8.41
2022-09-18T20:43:42.060Z,7.67
2022-09-18T20:46:14.315Z,9.02
2022-09-18T20:48:45.343Z,9.04
2022-09-18T20:51:15.316Z,9.04
2022-09-18T20:53:46.447Z,9.00
2022-09-18T20:56:15.983Z,9.03
2022-09-18T20:58:43.874Z,9.05
2022-09-18T21:01:15.531Z,8.96
2022-09-18T21:03:45.003Z,8.92
2022-09-18T21:06:23.492Z,8.60
2022-09-18T21:08:53.913Z,9.22
2022-09-18T21:11:23.965Z,9.53
2022-09-18T21:13:53.865Z,9.54
2022-09-18T21:16:26.888Z,9.43
2022-09-18T21:18:57.696Z,9.36
2022-09-18T21:21:27.574Z,8.90
2022-09-18T21:23:58.485Z,9.01
2022-09-18T21:26:28.139Z,9.22
2022-09-18T21:29:00.369Z,9.11
2022-09-18T21:31:30.366Z,9.17
2022-09-18T21:34:00.549Z,8.67
2022-09-18T21:36:29.023Z,9.28
2022-09-18T21:38:56.908Z,9.14
2022-09-18T21:41:26.201Z,9.06
2022-09-18T21:43:57.458Z,8.50
2022-09-18T21:46:25.634Z,8.42
2022-09-18T21:48:56.746Z,8.38
2022-09-18T21:51:24.610Z,9.51
2022-09-18T21:53:52.456Z,9.31
2022-09-18T21:56:21.805Z,9.49
2022-09-18T21:58:50.658Z,9.54
2022-09-18T22:01:20.528Z,9.45
2022-09-18T22:03:53.502Z,8.98
2022-09-18T22:06:28.544Z,8.81
2022-09-18T22:08:59.614Z,8.99
2022-09-18T22:11:32.294Z,8.90
2022-09-18T22:14:01.000Z,8.93
2022-09-18T22:16:29.697Z,8.62
2022-09-18T22:18:57.996Z,8.77
2022-09-18T22:21:29.240Z,8.68
2022-09-18T22:24:06.271Z,8.23
2022-09-18T22:26:37.015Z,8.28
2022-09-18T22:29:13.449Z,8.14
2022-09-18T22:31:41.378Z,8.51
2022-09-18T22:34:09.563Z,7.82
2022-09-18T22:36:38.789Z,8.29
2022-09-18T22:39:06.937Z,8.22
2022-09-18T22:41:40.193Z,7.31
2022-09-18T22:44:08.765Z,7.82
2022-09-18T22:46:39.317Z,8.06
2022-09-18T22:49:08.810Z,7.56
2022-09-18T22:51:40.108Z,7.67
2022-09-18T22:54:08.749Z,8.07
2022-09-18T22:56:39.973Z,7.45
2022-09-18T22:59:08.364Z,8.10
2022-09-18T23:01:41.641Z,7.87
2022-09-18T23:04:10.181Z,8.26
2022-09-18T23:06:39.536Z,8.20
2022-09-18T23:09:07.628Z,8.16
2022-09-18T23:11:36.153Z,8.23
2022-09-18T23:14:06.491Z,7.26
2022-09-18T23:16:36.573Z,8.18
2022-09-18T23:19:06.458Z,8.18
2022-09-18T23:21:35.983Z,7.48
2022-09-18T23:24:09.094Z,7.85
2022-09-18T23:26:39.326Z,8.24
2022-09-18T23:29:08.644Z,8.41
2022-09-18T23:31:38.939Z,8.48
2022-09-18T23:34:10.566Z,8.39
2022-09-18T23:36:40.635Z,8.29
2022-09-18T23:39:13.690Z,8.24
2022-09-18T23:41:42.558Z,7.84
2022-09-18T23:44:12.332Z,8.24
2022-09-18T23:46:40.569Z,7.84
2022-09-18T23:49:09.886Z,8.16
2022-09-18T23:51:40.474Z,7.76
2022-09-18T23:54:15.528Z,8.19
2022-09-18T23:56:44.041Z,7.27
2022-09-18T23:59:13.191Z,8.00
